Time;durP1;ratioP1;P1;durP2;ratioP2;P2;SDS_P1;SDS_P2;PMS_P1;PMS_P2;Temp;Humidity;BMP_temperature;BMP_pressure;BME280_temperature;BME280_humidity;BME280_pressure;Samples;Min_cycle;Max_cycle;Signal;HPM_P1;HPM_P2
2021/09/24 00:00:07;;;;;;;0.80;0.50;;;12.50;99.90;;;;;;4878895;29;20428;-69
2021/09/24 00:02:41;;;;;;;0.80;0.40;;;12.50;99.90;;;;;;4878605;29;20431;-69
2021/09/24 00:05:10;;;;;;;0.80;0.40;;;12.60;99.90;;;;;;4877578;29;20439;-69
2021/09/24 00:07:38;;;;;;;0.80;0.50;;;12.50;99.90;;;;;;4877238;29;20448;-69
2021/09/24 00:10:09;;;;;;;0.80;0.50;;;12.50;99.90;;;;;;4877321;29;20470;-69
2021/09/24 00:12:38;;;;;;;0.90;0.60;;;12.50;99.90;;;;;;4878597;29;20455;-69
2021/09/24 00:15:10;;;;;;;0.80;0.40;;;12.40;99.90;;;;;;4877408;29;20471;-69
2021/09/24 00:17:40;;;;;;;0.80;0.50;;;12.40;99.90;;;;;;4877050;29;20447;-68
2021/09/24 00:20:10;;;;;;;0.80;0.50;;;12.30;99.90;;;;;;4877451;29;20447;-69
2021/09/24 00:22:38;;;;;;;1.00;0.50;;;12.30;99.90;;;;;;4878173;29;20453;-69
2021/09/24 00:25:08;;;;;;;0.80;0.50;;;12.20;99.90;;;;;;4877061;29;20486;-69
2021/09/24 00:27:37;;;;;;;0.80;0.50;;;12.20;99.90;;;;;;4876963;29;20512;-68
2021/09/24 00:30:08;;;;;;;0.80;0.47;;;12.10;99.90;;;;;;4876931;29;20557;-68
2021/09/24 00:32:37;;;;;;;0.80;0.47;;;12.00;99.90;;;;;;4876940;29;20903;-68
2021/09/24 00:35:07;;;;;;;0.80;0.40;;;12.00;99.90;;;;;;4877074;29;20489;-68
2021/09/24 00:37:36;;;;;;;0.80;0.50;;;12.10;99.90;;;;;;4877212;29;20451;-68
2021/09/24 00:40:06;;;;;;;0.80;0.50;;;12.00;99.90;;;;;;4876859;29;20440;-68
2021/09/24 00:42:35;;;;;;;0.80;0.50;;;12.00;99.90;;;;;;4878249;29;20447;-69
2021/09/24 00:45:05;;;;;;;0.80;0.50;;;12.00;99.90;;;;;;4876820;29;20436;-69
2021/09/24 00:47:34;;;;;;;0.80;0.50;;;11.90;99.90;;;;;;4877973;29;20514;-68
2021/09/24 00:50:03;;;;;;;0.80;0.50;;;12.00;99.90;;;;;;4876658;29;20529;-69
2021/09/24 00:52:33;;;;;;;0.80;0.50;;;12.00;99.90;;;;;;4876621;29;20518;-69
2021/09/24 00:55:01;;;;;;;0.80;0.50;;;12.00;99.90;;;;;;4876455;29;20515;-69
2021/09/24 00:57:29;;;;;;;1.10;0.60;;;12.00;99.90;;;;;;4876845;29;20933;-69
2021/09/24 00:59:58;;;;;;;0.80;0.50;;;11.90;99.90;;;;;;4876561;29;20558;-69
2021/09/24 01:02:27;;;;;;;13.23;1.70;;;11.90;99.90;;;;;;4876330;29;20487;-68
2021/09/24 01:04:57;;;;;;;0.80;0.43;;;12.00;99.90;;;;;;4878094;29;20435;-68
2021/09/24 01:07:25;;;;;;;0.80;0.50;;;12.00;99.90;;;;;;4876724;29;20443;-68
2021/09/24 01:09:56;;;;;;;0.80;0.50;;;12.10;99.90;;;;;;4876615;29;20511;-69
2021/09/24 01:12:25;;;;;;;0.80;0.50;;;12.10;99.90;;;;;;4877900;29;20483;-69
2021/09/24 01:14:59;;;;;;;0.80;0.50;;;12.10;99.90;;;;;;4877752;29;20510;-69
2021/09/24 01:17:27;;;;;;;0.90;0.50;;;12.10;99.90;;;;;;4876470;29;20483;-68
2021/09/24 01:19:56;;;;;;;0.80;0.50;;;12.20;99.90;;;;;;4876390;29;20483;-69
2021/09/24 01:22:26;;;;;;;0.80;0.40;;;12.10;99.90;;;;;;4876069;29;20955;-69
2021/09/24 01:24:54;;;;;;;0.80;0.60;;;12.20;99.90;;;;;;4877796;29;20436;-68
2021/09/24 01:27:23;;;;;;;0.80;0.50;;;12.30;99.90;;;;;;4876148;29;20529;-69
2021/09/24 01:29:51;;;;;;;0.80;0.50;;;12.30;99.90;;;;;;4892699;23;20467;-70
2021/09/24 01:32:20;;;;;;;1.10;1.00;;;12.30;99.90;;;;;;4877036;29;20447;-70
2021/09/24 01:34:48;;;;;;;0.80;0.40;;;12.30;99.90;;;;;;4877135;29;20467;-70
2021/09/24 01:37:17;;;;;;;0.80;0.50;;;12.40;99.90;;;;;;4876895;29;20432;-71
2021/09/24 01:39:46;;;;;;;0.80;0.40;;;12.40;99.90;;;;;;4876983;29;20439;-70
2021/09/24 01:42:15;;;;;;;0.80;0.40;;;12.50;99.90;;;;;;4876930;29;20426;-70
2021/09/24 01:44:43;;;;;;;0.80;0.40;;;12.50;99.90;;;;;;4877001;29;20427;-70
2021/09/24 01:47:11;;;;;;;0.80;0.50;;;12.50;99.90;;;;;;4876962;29;20428;-70
2021/09/24 01:49:39;;;;;;;0.80;0.40;;;12.50;99.90;;;;;;4877061;29;20794;-70
2021/09/24 01:52:08;;;;;;;0.80;0.40;;;12.50;99.90;;;;;;4876927;29;21030;-70
2021/09/24 01:54:36;;;;;;;0.80;0.47;;;12.50;99.90;;;;;;4876632;29;20998;-70
2021/09/24 01:57:06;;;;;;;0.80;0.40;;;12.50;99.90;;;;;;4876360;29;20438;-69
2021/09/24 01:59:34;;;;;;;0.80;0.50;;;12.50;99.90;;;;;;4876766;29;20508;-69
2021/09/24 02:02:02;;;;;;;0.80;0.43;;;12.50;99.90;;;;;;4876649;29;20448;-69
2021/09/24 02:04:30;;;;;;;0.80;0.40;;;12.50;99.90;;;;;;4876610;29;20432;-69
2021/09/24 02:06:59;;;;;;;0.80;0.40;;;12.50;99.90;;;;;;4875072;29;20503;-69
2021/09/24 02:09:27;;;;;;;0.80;0.50;;;12.50;99.90;;;;;;4876216;29;20491;-69
2021/09/24 02:11:55;;;;;;;0.80;0.50;;;12.40;99.90;;;;;;4876241;29;20435;-69
2021/09/24 02:14:24;;;;;;;0.80;0.50;;;12.50;99.90;;;;;;4876433;29;20499;-69
2021/09/24 02:16:52;;;;;;;0.80;0.53;;;12.40;99.90;;;;;;4876331;29;20435;-68
2021/09/24 02:19:21;;;;;;;0.80;0.50;;;12.40;99.90;;;;;;4875871;29;20427;-70
2021/09/24 02:21:49;;;;;;;0.80;0.40;;;12.40;99.90;;;;;;4876457;29;20512;-70
2021/09/24 02:24:17;;;;;;;0.80;0.40;;;12.50;99.90;;;;;;4876434;29;20431;-70
2021/09/24 02:26:45;;;;;;;0.80;0.50;;;12.50;99.90;;;;;;4876209;29;20803;-69
2021/09/24 02:29:13;;;;;;;0.80;0.40;;;12.50;99.90;;;;;;4876033;29;20986;-69
2021/09/24 02:31:43;;;;;;;0.80;0.40;;;12.50;99.90;;;;;;4876223;29;20439;-70
2021/09/24 02:34:12;;;;;;;0.80;0.50;;;12.50;99.90;;;;;;4877097;29;20419;-70
2021/09/24 02:36:40;;;;;;;0.80;0.40;;;12.40;99.90;;;;;;4880161;29;20491;-70
2021/09/24 02:39:09;;;;;;;0.80;0.50;;;12.40;99.90;;;;;;4880134;29;20427;-70
2021/09/24 02:41:37;;;;;;;0.80;0.40;;;12.40;99.90;;;;;;4880180;29;20495;-70
2021/09/24 02:44:06;;;;;;;0.80;0.43;;;12.40;99.90;;;;;;4880520;29;20431;-70
2021/09/24 02:46:34;;;;;;;0.80;0.50;;;12.40;99.90;;;;;;4880953;29;20442;-70
2021/09/24 02:49:04;;;;;;;0.80;0.50;;;12.40;99.90;;;;;;4879986;29;20491;-70
2021/09/24 02:51:32;;;;;;;0.80;0.40;;;12.40;99.90;;;;;;4878938;29;20507;-70
2021/09/24 02:54:01;;;;;;;0.80;0.50;;;12.40;99.90;;;;;;4879904;29;20503;-70
2021/09/24 02:56:30;;;;;;;0.80;0.40;;;12.40;99.90;;;;;;4879776;29;20982;-70
2021/09/24 02:58:58;;;;;;;0.80;0.50;;;12.40;99.90;;;;;;4879312;29;20439;-70
2021/09/24 03:01:26;;;;;;;0.80;0.50;;;12.40;99.90;;;;;;4879746;29;20495;-70
2021/09/24 03:03:55;;;;;;;0.80;0.40;;;12.40;99.90;;;;;;4879720;29;20791;-69
2021/09/24 03:06:25;;;;;;;1.57;1.47;;;12.40;99.90;;;;;;4878202;29;20466;-70
2021/09/24 03:08:53;;;;;;;0.80;0.40;;;12.40;99.90;;;;;;4879383;29;20494;-69
2021/09/24 03:11:21;;;;;;;0.80;0.50;;;12.40;99.90;;;;;;4879706;29;20439;-69
2021/09/24 03:13:49;;;;;;;0.90;0.60;;;12.50;99.90;;;;;;4879355;29;20820;-69
2021/09/24 03:16:20;;;;;;;0.80;0.50;;;12.40;99.90;;;;;;4879477;29;20481;-69
2021/09/24 03:18:49;;;;;;;0.80;0.50;;;12.40;99.90;;;;;;4879684;29;20499;-69
2021/09/24 03:21:17;;;;;;;0.80;0.40;;;12.40;99.90;;;;;;4879406;29;20491;-70
2021/09/24 03:23:47;;;;;;;0.80;0.40;;;12.40;99.90;;;;;;4880036;29;20458;-69
2021/09/24 03:26:18;;;;;;;0.80;0.50;;;12.40;99.90;;;;;;4878466;29;20447;-70
2021/09/24 03:28:47;;;;;;;0.80;0.50;;;12.40;99.90;;;;;;4878961;29;20428;-70
2021/09/24 03:31:15;;;;;;;0.80;0.40;;;12.50;99.90;;;;;;4879391;29;20935;-70
2021/09/24 03:33:44;;;;;;;0.80;0.47;;;12.50;99.90;;;;;;4879522;29;21036;-70
2021/09/24 03:36:12;;;;;;;0.80;0.50;;;12.50;99.90;;;;;;4879257;29;20469;-69
2021/09/24 03:38:40;;;;;;;0.80;0.50;;;12.50;99.90;;;;;;4879056;29;20435;-69
2021/09/24 03:41:10;;;;;;;0.80;0.50;;;12.50;99.90;;;;;;4879392;29;20443;-69
2021/09/24 03:43:38;;;;;;;0.80;0.50;;;12.50;99.90;;;;;;4877957;29;20612;-68
2021/09/24 03:46:06;;;;;;;0.87;0.57;;;12.50;99.90;;;;;;4878678;29;20431;-68
2021/09/24 03:48:35;;;;;;;0.80;0.40;;;12.50;99.90;;;;;;4879262;29;20439;-68
2021/09/24 03:51:03;;;;;;;0.80;0.40;;;12.50;99.90;;;;;;4879136;29;20428;-69
2021/09/24 03:53:31;;;;;;;0.80;0.50;;;12.50;99.90;;;;;;4879385;29;20451;-69
2021/09/24 03:55:59;;;;;;;0.80;0.50;;;12.40;99.90;;;;;;4879315;29;20474;-69
2021/09/24 03:58:29;;;;;;;0.80;0.50;;;12.40;99.90;;;;;;4879001;29;20430;-69
2021/09/24 04:00:57;;;;;;;0.90;0.73;;;12.40;99.90;;;;;;4878945;29;20435;-69
2021/09/24 04:03:26;;;;;;;0.80;0.40;;;12.40;99.90;;;;;;4879056;29;20422;-69
2021/09/24 04:05:54;;;;;;;0.80;0.40;;;12.40;99.90;;;;;;4878884;29;20423;-70
2021/09/24 04:08:22;;;;;;;0.80;0.40;;;12.40;99.90;;;;;;4878858;29;20817;-69
2021/09/24 04:10:51;;;;;;;2.60;1.00;;;12.30;99.90;;;;;;4878854;29;20443;-70
2021/09/24 04:13:20;;;;;;;0.80;0.50;;;12.20;99.90;;;;;;4878677;29;20447;-70
2021/09/24 04:15:49;;;;;;;0.80;0.50;;;12.20;99.90;;;;;;4878636;29;20467;-71
2021/09/24 04:18:18;;;;;;;0.80;0.50;;;12.10;99.90;;;;;;4878582;29;20432;-70
2021/09/24 04:20:47;;;;;;;0.80;0.43;;;12.10;99.90;;;;;;4878839;29;20856;-70
2021/09/24 04:23:15;;;;;;;0.80;0.50;;;12.10;99.90;;;;;;4878960;29;20439;-72
2021/09/24 04:25:44;;;;;;;0.80;0.50;;;12.00;99.90;;;;;;4879058;29;20458;-69
2021/09/24 04:28:12;;;;;;;0.80;0.43;;;12.10;99.90;;;;;;4878724;29;20430;-71
2021/09/24 04:30:40;;;;;;;0.80;0.40;;;12.10;99.90;;;;;;4878799;29;20447;-69
2021/09/24 04:33:10;;;;;;;0.80;0.50;;;12.10;99.90;;;;;;4878404;29;20432;-69
2021/09/24 04:35:38;;;;;;;0.80;0.50;;;12.20;99.90;;;;;;4878469;29;20463;-69
2021/09/24 04:38:06;;;;;;;0.80;0.53;;;12.30;99.90;;;;;;4878063;29;20590;-69
2021/09/24 04:40:34;;;;;;;0.80;0.40;;;12.30;99.90;;;;;;4878189;29;20447;-69
2021/09/24 04:43:03;;;;;;;0.80;0.50;;;12.30;99.90;;;;;;4878137;29;20456;-71
2021/09/24 04:45:31;;;;;;;0.80;0.40;;;12.20;99.90;;;;;;4878115;29;20427;-70
2021/09/24 04:47:59;;;;;;;0.80;0.40;;;12.20;99.90;;;;;;4877583;29;20526;-70
2021/09/24 04:50:29;;;;;;;0.80;0.50;;;12.20;99.90;;;;;;4876659;29;20995;-70
2021/09/24 04:52:57;;;;;;;0.80;0.50;;;12.20;99.90;;;;;;4878122;29;20448;-70
2021/09/24 04:55:25;;;;;;;1.63;1.53;;;12.20;99.90;;;;;;4877992;29;20434;-70
2021/09/24 04:57:53;;;;;;;0.90;0.77;;;12.20;99.90;;;;;;4877017;29;20427;-70
2021/09/24 05:00:22;;;;;;;0.80;0.40;;;12.30;99.90;;;;;;4876875;29;20443;-69
2021/09/24 05:02:50;;;;;;;1.00;0.70;;;12.20;99.90;;;;;;4877819;29;20538;-69
2021/09/24 05:05:18;;;;;;;0.80;0.40;;;12.20;99.90;;;;;;4877706;29;20407;-71
2021/09/24 05:07:48;;;;;;;0.80;0.40;;;12.20;99.90;;;;;;4877630;29;20834;-71
2021/09/24 05:10:16;;;;;;;0.80;0.50;;;12.20;99.90;;;;;;4877315;29;20431;-69
2021/09/24 05:12:45;;;;;;;0.80;0.50;;;12.20;99.90;;;;;;4877811;29;20450;-70
2021/09/24 05:15:13;;;;;;;0.93;0.50;;;12.20;99.90;;;;;;4877699;29;20434;-71
2021/09/24 05:17:41;;;;;;;1.13;1.03;;;12.20;99.90;;;;;;4877106;29;20483;-70
2021/09/24 05:20:10;;;;;;;0.80;0.50;;;12.20;99.90;;;;;;4877415;29;20523;-70
2021/09/24 05:22:38;;;;;;;0.80;0.40;;;12.20;99.90;;;;;;4877652;29;20858;-70
2021/09/24 05:25:09;;;;;;;0.83;0.53;;;12.30;99.90;;;;;;4877491;29;20440;-70
2021/09/24 05:27:37;;;;;;;0.80;0.50;;;12.30;99.90;;;;;;4877171;29;20871;-70
2021/09/24 05:30:07;;;;;;;1.00;0.57;;;12.30;99.90;;;;;;4877222;29;20807;-69
2021/09/24 05:32:36;;;;;;;0.80;0.50;;;12.20;99.90;;;;;;4877349;29;20459;-71
2021/09/24 05:35:04;;;;;;;0.80;0.50;;;12.30;99.90;;;;;;4877218;29;20527;-72
2021/09/24 05:37:33;;;;;;;0.80;0.50;;;12.30;99.90;;;;;;4877249;29;20474;-69
2021/09/24 05:40:01;;;;;;;0.80;0.40;;;12.30;99.90;;;;;;4877062;29;20411;-70
2021/09/24 05:42:31;;;;;;;0.80;0.40;;;12.30;99.90;;;;;;4877188;29;20868;-71
2021/09/24 05:44:59;;;;;;;0.80;0.40;;;12.30;99.90;;;;;;4877494;29;20431;-71
2021/09/24 05:47:27;;;;;;;0.80;0.50;;;12.30;99.90;;;;;;4874603;29;20770;-69
2021/09/24 05:49:56;;;;;;;0.80;0.40;;;12.40;99.90;;;;;;4876221;29;20499;-70
2021/09/24 05:52:24;;;;;;;0.80;0.40;;;12.40;99.90;;;;;;4876757;29;20455;-70
2021/09/24 05:54:54;;;;;;;0.80;0.40;;;12.30;99.90;;;;;;4877794;29;20825;-69
2021/09/24 05:57:22;;;;;;;0.80;0.40;;;12.30;99.90;;;;;;4876569;29;20475;-69
2021/09/24 05:59:51;;;;;;;0.80;0.40;;;12.30;99.90;;;;;;4876673;29;20538;-69
2021/09/24 06:02:20;;;;;;;0.80;0.50;;;12.30;99.90;;;;;;4877286;29;20942;-70
2021/09/24 06:04:48;;;;;;;0.80;0.50;;;12.30;99.90;;;;;;4875617;29;20439;-70
2021/09/24 06:07:16;;;;;;;0.80;0.50;;;12.30;99.90;;;;;;4876946;29;20420;-70
2021/09/24 06:09:44;;;;;;;0.80;0.50;;;12.40;99.90;;;;;;4876518;29;20424;-69
2021/09/24 06:12:13;;;;;;;0.80;0.43;;;12.40;99.90;;;;;;4877069;29;20459;-71
2021/09/24 06:14:41;;;;;;;0.80;0.50;;;12.40;99.90;;;;;;4876768;29;20513;-70
2021/09/24 06:17:11;;;;;;;0.80;0.40;;;12.50;99.90;;;;;;4876383;29;20482;-70
2021/09/24 06:19:40;;;;;;;0.80;0.40;;;12.60;99.90;;;;;;4876696;29;20415;-70
2021/09/24 06:22:09;;;;;;;0.80;0.50;;;12.60;99.90;;;;;;4876384;29;20454;-69
2021/09/24 06:24:37;;;;;;;0.80;0.50;;;12.60;99.90;;;;;;4876405;29;20514;-70
2021/09/24 06:27:10;;;;;;;0.80;0.50;;;12.50;99.90;;;;;;4876334;29;20424;-70
2021/09/24 06:29:38;;;;;;;0.80;0.40;;;12.50;99.90;;;;;;4876205;29;20514;-70
2021/09/24 06:32:07;;;;;;;0.80;0.40;;;12.50;99.90;;;;;;4876860;29;20441;-69
2021/09/24 06:34:37;;;;;;;0.80;0.50;;;12.50;99.90;;;;;;4876487;29;20783;-69
2021/09/24 06:37:06;;;;;;;0.80;0.50;;;12.50;99.90;;;;;;4876383;29;20478;-71
2021/09/24 06:39:34;;;;;;;0.80;0.50;;;12.50;99.90;;;;;;4876655;29;20446;-70
2021/09/24 06:42:03;;;;;;;0.80;0.43;;;12.50;99.90;;;;;;4876391;29;20559;-70
2021/09/24 06:44:31;;;;;;;0.80;0.50;;;12.60;99.90;;;;;;4875183;29;20795;-70
2021/09/24 06:47:00;;;;;;;0.80;0.50;;;12.50;99.90;;;;;;4874836;29;20462;-70
2021/09/24 06:49:28;;;;;;;1.27;0.63;;;12.60;99.90;;;;;;4876107;29;20561;-69
2021/09/24 06:51:58;;;;;;;0.80;0.50;;;12.60;99.90;;;;;;4876201;29;20427;-70
2021/09/24 06:54:27;;;;;;;0.80;0.50;;;12.60;99.90;;;;;;4875640;29;20430;-70
2021/09/24 06:56:55;;;;;;;0.80;0.40;;;12.70;99.90;;;;;;4875953;29;20548;-69
2021/09/24 06:59:23;;;;;;;0.80;0.50;;;12.70;99.90;;;;;;4873968;29;20431;-69
2021/09/24 07:01:51;;;;;;;0.80;0.40;;;12.70;99.90;;;;;;4875379;29;20927;-70
2021/09/24 07:04:20;;;;;;;0.87;0.63;;;12.80;99.90;;;;;;4875587;29;20799;-70
2021/09/24 07:06:49;;;;;;;0.80;0.40;;;12.80;99.90;;;;;;4875205;29;20465;-68
2021/09/24 07:09:19;;;;;;;1.10;0.80;;;12.80;99.90;;;;;;4874841;29;20435;-69
2021/09/24 07:11:49;;;;;;;0.80;0.50;;;12.90;99.90;;;;;;4875588;29;20428;-69
2021/09/24 07:14:19;;;;;;;0.80;0.40;;;12.90;99.90;;;;;;4874903;29;20423;-69
2021/09/24 07:16:48;;;;;;;0.80;0.50;;;12.90;99.90;;;;;;4875154;29;20432;-70
2021/09/24 07:19:16;;;;;;;0.90;0.60;;;13.00;99.90;;;;;;4874674;29;20503;-70
2021/09/24 07:21:44;;;;;;;0.80;0.40;;;13.10;99.90;;;;;;4877901;29;20783;-69
2021/09/24 07:24:12;;;;;;;0.80;0.40;;;13.20;99.90;;;;;;4878845;29;20426;-69
2021/09/24 07:26:42;;;;;;;1.07;0.50;;;13.20;99.90;;;;;;4879023;29;20999;-69
2021/09/24 07:29:10;;;;;;;0.80;0.50;;;13.30;99.90;;;;;;4879029;29;20423;-70
2021/09/24 07:31:38;;;;;;;1.47;0.67;;;13.50;99.90;;;;;;4908802;23;20501;-75
2021/09/24 07:34:07;;;;;;;0.80;0.40;;;13.60;99.90;;;;;;4900155;29;20880;-75
2021/09/24 07:36:35;;;;;;;0.80;0.40;;;13.70;99.90;;;;;;4900297;29;20571;-75
2021/09/24 07:39:03;;;;;;;0.80;0.60;;;13.70;99.90;;;;;;4900472;29;20477;-75
2021/09/24 07:41:31;;;;;;;1.00;0.83;;;13.60;99.90;;;;;;4900466;29;20492;-75
2021/09/24 07:44:03;;;;;;;0.80;0.40;;;13.70;99.90;;;;;;4907526;29;20423;-75
2021/09/24 07:46:32;;;;;;;0.80;0.40;;;13.70;99.90;;;;;;4916098;29;20414;-74
2021/09/24 07:49:00;;;;;;;0.80;0.40;;;13.80;99.90;;;;;;4914951;29;20848;-75
2021/09/24 07:51:28;;;;;;;0.80;0.40;;;13.80;99.90;;;;;;4914304;29;20474;-73
2021/09/24 07:53:56;;;;;;;0.80;0.50;;;13.80;99.90;;;;;;4917397;29;20457;-74
2021/09/24 07:56:25;;;;;;;0.80;0.40;;;13.80;99.90;;;;;;4917198;29;20416;-75
2021/09/24 07:58:53;;;;;;;0.80;0.40;;;14.00;99.90;;;;;;4914946;29;20465;-75
2021/09/24 08:01:24;;;;;;;0.80;0.50;;;14.10;99.90;;;;;;4899844;29;20489;-74
2021/09/24 08:03:53;;;;;;;0.80;0.50;;;14.20;99.90;;;;;;4900092;29;20426;-74
2021/09/24 08:06:21;;;;;;;0.80;0.50;;;14.30;99.90;;;;;;4898879;29;20490;-75
2021/09/24 08:08:49;;;;;;;0.80;0.40;;;14.40;99.90;;;;;;4899205;29;20426;-74
2021/09/24 08:11:18;;;;;;;0.80;0.40;;;14.40;99.90;;;;;;4899657;29;20805;-74
2021/09/24 08:13:46;;;;;;;3.73;1.00;;;14.40;99.90;;;;;;4899829;29;20419;-73
2021/09/24 08:16:14;;;;;;;0.80;0.50;;;14.40;99.90;;;;;;4900258;29;20431;-75
2021/09/24 08:18:43;;;;;;;1.63;0.83;;;14.50;99.90;;;;;;4900678;29;20464;-74
2021/09/24 08:21:11;;;;;;;0.80;0.40;;;14.70;99.90;;;;;;4900470;29;20453;-73
2021/09/24 08:23:41;;;;;;;0.80;0.40;;;14.50;99.90;;;;;;4899285;29;20454;-75
2021/09/24 08:26:10;;;;;;;0.80;0.40;;;14.50;99.90;;;;;;4899348;29;20426;-74
2021/09/24 08:28:38;;;;;;;0.80;0.40;;;14.60;99.90;;;;;;4898789;29;20415;-73
2021/09/24 08:31:06;;;;;;;0.90;0.50;;;14.70;99.90;;;;;;4898883;29;20469;-75
2021/09/24 08:33:34;;;;;;;3.37;0.70;;;14.90;99.90;;;;;;4899074;29;20434;-75
2021/09/24 08:36:04;;;;;;;0.80;0.40;;;15.00;99.90;;;;;;4899116;29;20438;-75
2021/09/24 08:38:33;;;;;;;0.80;0.40;;;14.90;99.90;;;;;;4898608;29;20993;-75
2021/09/24 08:41:01;;;;;;;0.90;0.60;;;15.20;99.90;;;;;;4898600;29;20549;-74
2021/09/24 08:43:30;;;;;;;0.80;0.50;;;15.30;99.90;;;;;;4896668;29;20978;-74
2021/09/24 08:45:58;;;;;;;0.80;0.50;;;15.50;99.90;;;;;;4899026;29;20440;-75
2021/09/24 08:48:28;;;;;;;0.80;0.50;;;15.50;99.90;;;;;;4898919;29;20471;-76
2021/09/24 08:50:56;;;;;;;0.80;0.40;;;15.70;99.90;;;;;;4897399;29;20444;-76
2021/09/24 08:53:26;;;;;;;0.90;0.47;;;15.90;99.90;;;;;;4897255;29;20424;-75
2021/09/24 08:55:54;;;;;;;1.00;0.60;;;16.00;99.90;;;;;;4881153;29;20421;-76
2021/09/24 08:58:22;;;;;;;2.03;0.77;;;16.10;99.90;;;;;;4884969;29;20441;-76
2021/09/24 09:00:50;;;;;;;2.30;2.20;;;16.00;99.90;;;;;;4897801;29;20470;-73
2021/09/24 09:03:19;;;;;;;0.80;0.50;;;16.00;99.90;;;;;;4898855;29;20455;-75
2021/09/24 09:05:49;;;;;;;0.80;0.50;;;15.90;99.90;;;;;;4905625;29;20426;-75
2021/09/24 09:08:20;;;;;;;1.00;0.87;;;15.90;99.90;;;;;;4890812;29;20447;-75
2021/09/24 09:10:55;;;;;;;0.80;0.40;;;16.00;99.90;;;;;;4887149;29;20534;-74
2021/09/24 09:13:27;;;;;;;0.83;0.40;;;15.80;99.90;;;;;;4886374;29;20938;-74
2021/09/24 09:15:58;;;;;;;0.80;0.40;;;15.60;99.90;;;;;;4887344;29;20434;-75
2021/09/24 09:18:31;;;;;;;0.80;0.40;;;15.60;99.90;;;;;;4886714;29;20959;-75
2021/09/24 09:21:00;;;;;;;0.80;0.40;;;15.70;99.90;;;;;;4888361;29;20458;-75
2021/09/24 09:23:29;;;;;;;0.90;0.63;;;16.00;99.90;;;;;;4888914;29;20428;-74
2021/09/24 09:26:03;;;;;;;0.90;0.40;;;16.40;99.90;;;;;;4906645;29;20430;-75
2021/09/24 09:28:35;;;;;;;1.00;0.53;;;16.60;99.90;;;;;;4908548;29;20481;-75
2021/09/24 09:31:19;;;;;;;1.80;0.70;;;16.80;99.90;;;;;;4899094;29;21052;-75
2021/09/24 09:33:48;;;;;;;0.90;0.50;;;17.00;99.90;;;;;;4897761;29;20409;-76
2021/09/24 09:36:23;;;;;;;0.97;0.80;;;16.70;99.90;;;;;;4896779;29;20724;-75
2021/09/24 09:38:51;;;;;;;0.90;0.43;;;16.60;99.90;;;;;;4898010;29;20948;-75
2021/09/24 09:41:22;;;;;;;0.90;0.50;;;16.50;99.90;;;;;;4898699;29;20497;-75
2021/09/24 09:43:52;;;;;;;0.83;0.40;;;16.70;99.90;;;;;;4898408;29;20401;-76
2021/09/24 09:46:26;;;;;;;0.87;0.40;;;16.90;99.90;;;;;;4898039;29;20465;-75
2021/09/24 09:49:03;;;;;;;5.53;0.80;;;17.20;99.90;;;;;;4898086;29;20434;-75
2021/09/24 09:51:31;;;;;;;0.90;0.47;;;17.30;99.90;;;;;;4897839;29;20799;-75
2021/09/24 09:54:00;;;;;;;0.90;0.60;;;17.30;99.90;;;;;;4896459;29;20499;-75
2021/09/24 09:56:50;;;;;;;0.90;0.50;;;17.00;99.90;;;;;;4897452;29;20426;-75
2021/09/24 09:59:26;;;;;;;0.90;0.50;;;16.80;99.90;;;;;;4897585;29;20466;-74
2021/09/24 10:02:12;;;;;;;0.90;0.40;;;16.50;99.90;;;;;;4897119;29;20863;-74
2021/09/24 10:04:43;;;;;;;0.90;0.40;;;16.60;99.90;;;;;;4897196;29;20426;-74
2021/09/24 10:07:12;;;;;;;0.90;0.50;;;16.60;99.90;;;;;;4897577;29;20397;-75
2021/09/24 10:09:41;;;;;;;1.33;0.70;;;16.60;99.90;;;;;;4896651;29;20785;-75
2021/09/24 10:12:19;;;;;;;0.90;0.50;;;16.70;99.90;;;;;;4897593;29;20441;-74
2021/09/24 10:14:48;;;;;;;0.83;0.43;;;16.70;99.90;;;;;;4897213;29;20446;-75
2021/09/24 10:17:17;;;;;;;0.90;0.50;;;17.00;99.90;;;;;;4897458;29;20896;-75
2021/09/24 10:19:46;;;;;;;3.73;1.97;;;17.40;99.90;;;;;;4897125;29;20848;-75
2021/09/24 10:22:15;;;;;;;1.00;0.77;;;17.30;99.90;;;;;;4897398;29;20433;-75
2021/09/24 10:24:43;;;;;;;0.90;0.40;;;17.20;99.90;;;;;;4896968;29;20424;-76
2021/09/24 10:27:16;;;;;;;0.90;0.40;;;17.30;99.90;;;;;;4896551;29;20454;-76
2021/09/24 10:29:48;;;;;;;1.10;0.60;;;17.70;99.90;;;;;;4897894;29;20741;-75
2021/09/24 10:32:18;;;;;;;0.90;0.50;;;17.90;99.90;;;;;;4897400;29;20825;-75
2021/09/24 10:34:55;;;;;;;1.30;1.07;;;17.90;99.90;;;;;;4896020;29;20405;-75
2021/09/24 10:37:25;;;;;;;0.90;0.47;;;18.00;99.90;;;;;;4897878;29;20436;-73
2021/09/24 10:39:59;;;;;;;1.67;0.90;;;17.70;99.90;;;;;;4897839;29;20445;-75
2021/09/24 10:42:51;;;;;;;0.90;0.50;;;17.60;99.90;;;;;;4897887;29;20422;-75
2021/09/24 10:45:34;;;;;;;0.90;0.40;;;17.80;99.90;;;;;;4897698;29;20500;-76
2021/09/24 10:48:06;;;;;;;0.90;0.40;;;17.80;99.90;;;;;;4897710;29;20429;-75
2021/09/24 10:51:06;;;;;;;0.90;0.50;;;17.80;99.90;;;;;;4897555;29;20991;-74
2021/09/24 10:53:51;;;;;;;0.90;0.50;;;17.60;99.90;;;;;;4897462;29;20750;-75
2021/09/24 10:56:31;;;;;;;0.90;0.50;;;17.60;99.90;;;;;;4902553;29;20408;-75
2021/09/24 10:59:19;;;;;;;0.90;0.50;;;17.70;99.90;;;;;;4908623;29;20456;-76
2021/09/24 11:01:48;;;;;;;0.90;0.50;;;17.80;99.90;;;;;;4902388;29;20442;-76
2021/09/24 11:04:18;;;;;;;0.90;0.50;;;17.90;99.90;;;;;;4900514;29;21013;-75
2021/09/24 11:06:49;;;;;;;0.90;0.40;;;17.70;99.90;;;;;;4902586;29;20426;-75
2021/09/24 11:09:21;;;;;;;0.90;0.50;;;17.60;99.90;;;;;;4905771;29;20390;-74
2021/09/24 11:11:51;;;;;;;0.90;0.40;;;17.60;99.90;;;;;;4910379;29;20464;-73
2021/09/24 11:14:28;;;;;;;0.90;0.50;;;17.40;99.90;;;;;;4913461;29;20888;-75
2021/09/24 11:16:58;;;;;;;0.90;0.50;;;17.20;99.90;;;;;;4912953;29;20420;-75
2021/09/24 11:19:35;;;;;;;0.90;0.40;;;17.10;99.90;;;;;;4913446;29;20449;-75
2021/09/24 11:22:36;;;;;;;0.90;0.50;;;17.10;99.90;;;;;;4915202;29;20469;-73
2021/09/24 11:25:11;;;;;;;1.00;0.50;;;17.10;99.90;;;;;;4915804;29;20555;-75
2021/09/24 11:27:41;;;;;;;2.60;0.60;;;17.20;99.90;;;;;;4918219;29;20474;-74
2021/09/24 11:30:13;;;;;;;0.90;0.50;;;17.20;99.90;;;;;;4918055;29;20436;-74
2021/09/24 11:32:45;;;;;;;2.00;0.80;;;17.20;99.90;;;;;;4906502;29;20434;-76
2021/09/24 11:35:15;;;;;;;0.90;0.50;;;17.10;99.90;;;;;;4900943;29;20426;-75
2021/09/24 11:37:46;;;;;;;0.90;0.50;;;17.00;99.90;;;;;;4900684;29;20433;-75
2021/09/24 11:40:18;;;;;;;1.00;0.90;;;17.00;99.90;;;;;;4900618;29;20484;-75
2021/09/24 11:42:49;;;;;;;0.90;0.40;;;17.00;99.90;;;;;;4901464;29;20464;-76
2021/09/24 11:45:21;;;;;;;0.90;0.50;;;17.10;99.90;;;;;;4900715;29;20430;-75
2021/09/24 11:47:59;;;;;;;1.27;0.60;;;17.10;99.90;;;;;;4900479;29;20422;-75
2021/09/24 11:50:31;;;;;;;0.90;0.60;;;17.00;99.90;;;;;;4900206;29;20457;-76
2021/09/24 11:53:02;;;;;;;1.00;0.60;;;16.90;99.90;;;;;;4900433;29;20426;-76
2021/09/24 11:55:32;;;;;;;0.90;0.70;;;16.70;99.90;;;;;;4900258;29;20427;-76
2021/09/24 11:58:03;;;;;;;0.90;0.50;;;16.70;99.90;;;;;;4899779;29;20454;-75
2021/09/24 12:00:33;;;;;;;0.90;0.40;;;16.80;99.90;;;;;;4899788;29;20460;-76
2021/09/24 12:03:18;;;;;;;0.90;0.40;;;17.00;99.90;;;;;;4900994;29;20789;-76
2021/09/24 12:06:06;;;;;;;0.90;0.40;;;17.20;99.90;;;;;;4898851;29;20435;-76
2021/09/24 12:08:39;;;;;;;0.90;0.43;;;17.50;99.90;;;;;;4900110;29;20427;-75
2021/09/24 12:11:10;;;;;;;0.90;0.40;;;17.90;99.90;;;;;;4899861;29;20542;-74
2021/09/24 12:13:41;;;;;;;0.90;0.50;;;18.00;99.90;;;;;;4899581;29;20435;-73
2021/09/24 12:16:10;;;;;;;1.10;0.93;;;18.10;99.90;;;;;;4900405;29;20423;-75
2021/09/24 12:18:51;;;;;;;1.00;0.60;;;18.40;99.90;;;;;;4899351;29;20831;-75
2021/09/24 12:21:23;;;;;;;0.90;0.40;;;18.30;99.90;;;;;;4899686;29;20517;-75
2021/09/24 12:23:51;;;;;;;0.90;0.40;;;18.10;99.90;;;;;;4899447;29;20423;-75
2021/09/24 12:26:29;;;;;;;1.00;0.50;;;18.10;99.90;;;;;;4899743;29;20473;-76
2021/09/24 12:29:03;;;;;;;0.90;0.50;;;17.70;99.90;;;;;;4899214;29;20460;-76
2021/09/24 12:31:50;;;;;;;0.90;0.47;;;17.40;99.90;;;;;;4900720;29;20506;-75
2021/09/24 12:34:21;;;;;;;1.10;0.60;;;17.20;99.90;;;;;;4901525;29;20491;-75
2021/09/24 12:37:01;;;;;;;0.90;0.50;;;17.20;99.90;;;;;;4901577;29;20431;-76
2021/09/24 12:39:33;;;;;;;0.90;0.40;;;17.10;99.90;;;;;;4900867;29;20526;-76
2021/09/24 12:42:06;;;;;;;0.90;0.40;;;17.10;99.90;;;;;;4899352;29;20448;-76
2021/09/24 12:44:35;;;;;;;1.60;0.80;;;17.10;99.90;;;;;;4898648;29;20424;-76
2021/09/24 12:47:07;;;;;;;1.10;0.70;;;17.20;99.90;;;;;;4898576;29;20438;-75
2021/09/24 12:49:37;;;;;;;2.80;1.33;;;17.20;99.90;;;;;;4899386;29;20463;-75
2021/09/24 12:52:06;;;;;;;0.90;0.60;;;17.50;99.90;;;;;;4898422;29;20435;-76
2021/09/24 12:54:34;;;;;;;0.90;0.40;;;17.80;99.90;;;;;;4899479;29;20426;-76
2021/09/24 12:57:03;;;;;;;0.90;0.40;;;17.80;99.90;;;;;;4899165;29;20401;-75
2021/09/24 12:59:32;;;;;;;1.47;0.50;;;17.80;99.90;;;;;;4899103;29;20521;-75
2021/09/24 13:02:02;;;;;;;1.30;0.60;;;17.80;99.90;;;;;;4898665;29;20482;-75